Irbit, Russia
Current Conditions -  °F | °C
As of 9:30 PM on Sunday 21 Dec 2014 (Local Time) from USTR Reporting Station
Overcast Overcast  
Wind Chill: 20°   Ceiling: 3600
Heat Index: 30°   Visibility: 6mi
Dew Point: 27°   Wind: 13mph
Humidity: 86%   Direction: 210°SSW
Pressure: 29.65"   Gusts: 20mph
Location:  57.67°N, 63.06°E
Report Text: USTR 211630Z 21006G09MPS 9999 BKN036 OVC070 M01/M03 Q1004 NOSIGRMK QFE744/0992 21390050 30390050
Loading
Personal Weather Stations






























Interactive Weather Map New forecast layout! Learn more

10-Day Weather Forecast

Advertisements
Track Severe Weather on mobile